ETD249 EGKK-OMAA
Flight info
| Callsign | ETD249 |
|---|---|
| Flight time | N/A |
| Altitude | 19000 |
| Route | ODVIK Y311 DVR UL9 KONAN L607 KOK/N0485F370 UL607 REMBA DCT MATUG DCT AMASI DCT BOMBI DCT TENLO DCT LAMSI DCT SITNI DCT SASAL DCT SOGMO DCT BABIT DCT TISAK DCT ELDET DCT ARTAT UP975 ERMUP/N0491F390 UP975 ERGUN UL124 BONAM L319 TUDNU G781 UMH L223 KIS B541 ORSAR/N0507F350 G666 ELOVU |
| Aircraft | A35K/H-SDE2E3GHIJ3J4J5LM1ORWXY/LB1D1 |
Departure
| Time | 2026-05-04 13:54 |
|---|---|
| Airport | London Gatwick Airport (EGKK) |
Arrival
| Time | N/A |
|---|---|
| Airport | Zayed International Airport (OMAA) |
| Time | Latitude | Longitude | Altitude | Speed | Heading |
|---|---|---|---|---|---|
| 2026-05-04 13:32 | 51.15616 | -0.16787 | 219 ft | 0 kts | 168° |
| 2026-05-04 13:40 | 51.15623 | -0.16789 | 219 ft | 3 kts | 168° |
| 2026-05-04 13:40 | 51.15642 | -0.16795 | 210 ft | 3 kts | 188° |
| 2026-05-04 13:41 | 51.15661 | -0.16784 | 223 ft | 3 kts | 225° |
| 2026-05-04 13:41 | 51.15672 | -0.16759 | 218 ft | 2 kts | 258° |
| 2026-05-04 13:41 | 51.15672 | -0.16757 | 218 ft | 0 kts | 258° |
| 2026-05-04 13:43 | 51.15670 | -0.16777 | 216 ft | 6 kts | 261° |
| 2026-05-04 13:43 | 51.15661 | -0.16887 | 219 ft | 12 kts | 259° |
| 2026-05-04 13:43 | 51.15640 | -0.17033 | 215 ft | 14 kts | 256° |
| 2026-05-04 13:43 | 51.15614 | -0.17196 | 216 ft | 16 kts | 257° |
| 2026-05-04 13:44 | 51.15587 | -0.17378 | 219 ft | 18 kts | 252° |
| 2026-05-04 13:44 | 51.15534 | -0.17560 | 217 ft | 19 kts | 252° |
| 2026-05-04 13:44 | 51.15503 | -0.17763 | 219 ft | 18 kts | 257° |
| 2026-05-04 13:44 | 51.15475 | -0.17969 | 219 ft | 19 kts | 257° |
| 2026-05-04 13:45 | 51.15449 | -0.18156 | 218 ft | 16 kts | 257° |
| 2026-05-04 13:45 | 51.15376 | -0.18262 | 218 ft | 15 kts | 180° |
| 2026-05-04 13:45 | 51.15283 | -0.18239 | 217 ft | 0 kts | 168° |
| 2026-05-04 13:46 | 51.15280 | -0.18238 | 217 ft | 3 kts | 168° |
| 2026-05-04 13:46 | 51.15218 | -0.18242 | 217 ft | 12 kts | 203° |
| 2026-05-04 13:46 | 51.15176 | -0.18357 | 222 ft | 16 kts | 251° |
| 2026-05-04 13:47 | 51.15143 | -0.18605 | 218 ft | 25 kts | 258° |
| 2026-05-04 13:47 | 51.15104 | -0.18877 | 216 ft | 24 kts | 257° |
| 2026-05-04 13:47 | 51.15074 | -0.19122 | 221 ft | 21 kts | 261° |
| 2026-05-04 13:47 | 51.15046 | -0.19345 | 219 ft | 20 kts | 257° |
| 2026-05-04 13:48 | 51.15017 | -0.19550 | 220 ft | 18 kts | 257° |
| 2026-05-04 13:48 | 51.14990 | -0.19742 | 212 ft | 19 kts | 257° |
| 2026-05-04 13:48 | 51.14957 | -0.19958 | 213 ft | 21 kts | 257° |
| 2026-05-04 13:48 | 51.14921 | -0.20198 | 208 ft | 23 kts | 257° |
| 2026-05-04 13:49 | 51.14887 | -0.20459 | 220 ft | 25 kts | 258° |
| 2026-05-04 13:49 | 51.14852 | -0.20738 | 213 ft | 26 kts | 258° |
| 2026-05-04 13:49 | 51.14814 | -0.21029 | 218 ft | 27 kts | 258° |
| 2026-05-04 13:49 | 51.14761 | -0.21316 | 216 ft | 26 kts | 248° |
| 2026-05-04 13:50 | 51.14685 | -0.21366 | 216 ft | 11 kts | 160° |
| 2026-05-04 13:50 | 51.14629 | -0.21326 | 216 ft | 0 kts | 163° |
| 2026-05-04 13:50 | 51.14626 | -0.21326 | 216 ft | 2 kts | 166° |
| 2026-05-04 13:50 | 51.14624 | -0.21325 | 216 ft | 0 kts | 167° |
| 2026-05-04 13:51 | 51.14621 | -0.21324 | 217 ft | 0 kts | 167° |
| 2026-05-04 13:51 | 51.14576 | -0.21295 | 221 ft | 10 kts | 150° |
| 2026-05-04 13:52 | 51.14524 | -0.21102 | 216 ft | 8 kts | 78° |
| 2026-05-04 13:52 | 51.14524 | -0.21098 | 217 ft | 0 kts | 78° |
| 2026-05-04 13:53 | 51.14530 | -0.21055 | 222 ft | 25 kts | 78° |
| 2026-05-04 13:53 | 51.14622 | -0.20398 | 218 ft | 94 kts | 77° |
| 2026-05-04 13:53 | 51.14808 | -0.19054 | 221 ft | 154 kts | 78° |
| 2026-05-04 13:54 | 51.15326 | -0.15196 | 1274 ft | 180 kts | 77° |
| 2026-05-04 13:54 | 51.15609 | -0.13183 | 1792 ft | 198 kts | 77° |
| 2026-05-04 13:54 | 51.16283 | -0.08357 | 2443 ft | 248 kts | 77° |
| 2026-05-04 13:55 | 51.16659 | -0.05619 | 3176 ft | 255 kts | 77° |
| 2026-05-04 13:55 | 51.16868 | 0.00095 | 4675 ft | 263 kts | 91° |
| 2026-05-04 13:55 | 51.16802 | 0.03039 | 5421 ft | 268 kts | 91° |
| 2026-05-04 13:56 | 51.16738 | 0.06033 | 6163 ft | 274 kts | 92° |
| 2026-05-04 13:56 | 51.16676 | 0.09093 | 6932 ft | 278 kts | 92° |
| 2026-05-04 13:56 | 51.16556 | 0.15298 | 8623 ft | 283 kts | 92° |
| 2026-05-04 13:57 | 51.16530 | 0.18458 | 9484 ft | 287 kts | 91° |
| 2026-05-04 13:57 | 51.16545 | 0.21646 | 10313 ft | 290 kts | 90° |
| 2026-05-04 13:58 | 51.16582 | 0.31419 | 12633 ft | 301 kts | 91° |
| 2026-05-04 13:58 | 51.16598 | 0.38172 | 14115 ft | 308 kts | 91° |
| 2026-05-04 13:58 | 51.16598 | 0.41608 | 14731 ft | 315 kts | 91° |
| 2026-05-04 13:59 | 51.16597 | 0.45174 | 15090 ft | 329 kts | 91° |
| 2026-05-04 13:59 | 51.16594 | 0.48911 | 15370 ft | 346 kts | 91° |
| 2026-05-04 13:59 | 51.16584 | 0.55533 | 15829 ft | 373 kts | 91° |
| 2026-05-04 14:00 | 51.16576 | 0.63709 | 16339 ft | 401 kts | 91° |
| 2026-05-04 14:00 | 51.16547 | 0.81807 | 18767 ft | 418 kts | 92° |
| 2026-05-04 14:00 | 51.16516 | 0.91191 | 19937 ft | 428 kts | 92° |
| 2026-05-04 14:01 | 51.16477 | 1.00740 | 21210 ft | 434 kts | 92° |
| 2026-05-04 14:01 | 51.16429 | 1.10471 | 22407 ft | 443 kts | 92° |
| 2026-05-04 14:01 | 51.16304 | 1.30476 | 24608 ft | 459 kts | 93° |
| 2026-05-04 14:02 | 51.16185 | 1.40714 | 25633 ft | 464 kts | 95° |
| 2026-05-04 14:02 | 51.15727 | 1.50322 | 26544 ft | 469 kts | 98° |
| 2026-05-04 14:02 | 51.15424 | 1.55522 | 27056 ft | 472 kts | 98° |
| 2026-05-04 14:02 | 51.15122 | 1.60744 | 27563 ft | 475 kts | 98° |
| 2026-05-04 14:03 | 51.14830 | 1.65998 | 28062 ft | 478 kts | 98° |
| 2026-05-04 14:03 | 51.14549 | 1.71294 | 28505 ft | 481 kts | 98° |
| 2026-05-04 14:03 | 51.14278 | 1.76560 | 28947 ft | 484 kts | 97° |
| 2026-05-04 14:03 | 51.14005 | 1.81927 | 29383 ft | 487 kts | 97° |
| 2026-05-04 14:04 | 51.13455 | 1.92733 | 30176 ft | 492 kts | 98° |
| 2026-05-04 14:04 | 51.13175 | 1.98161 | 30655 ft | 491 kts | 98° |
| 2026-05-04 14:04 | 51.12893 | 2.03589 | 31098 ft | 491 kts | 98° |
| 2026-05-04 14:05 | 51.12318 | 2.14424 | 31915 ft | 491 kts | 98° |
| 2026-05-04 14:05 | 51.12025 | 2.19839 | 32302 ft | 491 kts | 99° |
| 2026-05-04 14:05 | 51.11730 | 2.25245 | 32712 ft | 491 kts | 99° |
| 2026-05-04 14:06 | 51.11433 | 2.30657 | 33102 ft | 491 kts | 99° |
| 2026-05-04 14:06 | 51.11133 | 2.36068 | 33478 ft | 490 kts | 99° |
| 2026-05-04 14:06 | 51.10831 | 2.41475 | 33828 ft | 490 kts | 100° |
| 2026-05-04 14:06 | 51.10527 | 2.46880 | 34165 ft | 490 kts | 100° |
| 2026-05-04 14:07 | 51.10221 | 2.52276 | 34464 ft | 490 kts | 99° |
| 2026-05-04 14:07 | 51.09912 | 2.57684 | 34746 ft | 489 kts | 99° |
| 2026-05-04 14:07 | 51.09557 | 2.62987 | 35009 ft | 487 kts | 103° |
| 2026-05-04 14:07 | 51.08855 | 2.68301 | 35293 ft | 484 kts | 108° |
| 2026-05-04 14:08 | 51.08012 | 2.73406 | 35520 ft | 483 kts | 109° |
| 2026-05-04 14:08 | 51.07105 | 2.78556 | 35759 ft | 483 kts | 110° |
| 2026-05-04 14:08 | 51.06171 | 2.83688 | 36004 ft | 483 kts | 110° |
| 2026-05-04 14:08 | 51.05225 | 2.88819 | 36216 ft | 484 kts | 110° |
| 2026-05-04 14:09 | 51.03324 | 2.99090 | 36680 ft | 484 kts | 110° |
| 2026-05-04 14:09 | 51.02377 | 3.04219 | 36891 ft | 484 kts | 110° |
| 2026-05-04 14:10 | 51.00467 | 3.14555 | 36982 ft | 492 kts | 109° |
| 2026-05-04 14:10 | 50.98536 | 3.24978 | 36979 ft | 491 kts | 109° |
| 2026-05-04 14:11 | 50.96603 | 3.35367 | 36976 ft | 491 kts | 110° |
| 2026-05-04 14:11 | 50.93688 | 3.50910 | 36971 ft | 491 kts | 110° |
| 2026-05-04 14:12 | 50.91729 | 3.61279 | 36963 ft | 491 kts | 110° |
| 2026-05-04 14:13 | 50.88754 | 3.76825 | 36954 ft | 491 kts | 110° |
| 2026-05-04 14:13 | 50.86740 | 3.87193 | 36966 ft | 492 kts | 110° |
| 2026-05-04 14:14 | 50.84768 | 3.97307 | 37229 ft | 487 kts | 110° |
| 2026-05-04 14:14 | 50.82813 | 4.07320 | 37978 ft | 472 kts | 110° |
| 2026-05-04 14:14 | 50.81846 | 4.12252 | 37987 ft | 468 kts | 110° |
| 2026-05-04 14:15 | 50.77950 | 4.31930 | 37988 ft | 469 kts | 110° |
| 2026-05-04 14:16 | 50.75234 | 4.45547 | 38105 ft | 473 kts | 110° |
| 2026-05-04 14:16 | 50.73231 | 4.55526 | 38215 ft | 478 kts | 110° |
| 2026-05-04 14:17 | 50.69243 | 4.75802 | 38366 ft | 490 kts | 110° |
| 2026-05-04 14:17 | 50.67251 | 4.86115 | 38484 ft | 494 kts | 110° |
| 2026-05-04 14:17 | 50.64750 | 4.99631 | 38813 ft | 496 kts | 107° |
| 2026-05-04 14:18 | 50.63911 | 5.04902 | 38933 ft | 496 kts | 107° |
| 2026-05-04 14:19 | 50.60580 | 5.25971 | 38979 ft | 498 kts | 107° |
| 2026-05-04 14:19 | 50.58844 | 5.36519 | 38976 ft | 498 kts | 108° |
| 2026-05-04 14:20 | 50.57088 | 5.47047 | 38978 ft | 498 kts | 108° |
| 2026-05-04 14:20 | 50.55322 | 5.57572 | 38982 ft | 498 kts | 108° |
| 2026-05-04 14:21 | 50.52653 | 5.73382 | 38985 ft | 499 kts | 108° |
| 2026-05-04 14:21 | 50.50860 | 5.83923 | 38986 ft | 499 kts | 108° |
| 2026-05-04 14:22 | 50.49057 | 5.94458 | 38984 ft | 499 kts | 108° |
| 2026-05-04 14:22 | 50.47245 | 6.04989 | 38986 ft | 499 kts | 108° |
| 2026-05-04 14:23 | 50.44519 | 6.20702 | 38984 ft | 501 kts | 108° |
| 2026-05-04 14:24 | 50.42677 | 6.31244 | 38981 ft | 501 kts | 108° |
| 2026-05-04 14:24 | 50.40865 | 6.41806 | 38981 ft | 502 kts | 106° |
| 2026-05-04 14:25 | 50.39393 | 6.52524 | 38972 ft | 503 kts | 104° |
| 2026-05-04 14:25 | 50.37273 | 6.68668 | 38986 ft | 504 kts | 105° |
| 2026-05-04 14:26 | 50.35795 | 6.79349 | 38996 ft | 504 kts | 105° |
| 2026-05-04 14:26 | 50.34280 | 6.90063 | 39010 ft | 504 kts | 105° |
| 2026-05-04 14:27 | 50.32753 | 7.00760 | 39013 ft | 504 kts | 105° |
| 2026-05-04 14:27 | 50.31216 | 7.11471 | 39015 ft | 504 kts | 105° |
| 2026-05-04 14:28 | 50.29672 | 7.22169 | 39011 ft | 504 kts | 106° |
| 2026-05-04 14:28 | 50.28118 | 7.32862 | 39007 ft | 504 kts | 106° |
| 2026-05-04 14:29 | 50.24991 | 7.54150 | 38997 ft | 503 kts | 106° |
| 2026-05-04 14:30 | 50.23414 | 7.64803 | 38997 ft | 503 kts | 106° |
| 2026-05-04 14:31 | 50.21030 | 7.80781 | 38991 ft | 503 kts | 106° |
| 2026-05-04 14:32 | 50.17819 | 8.02031 | 38985 ft | 503 kts | 106° |
| 2026-05-04 14:32 | 50.16162 | 8.12896 | 38981 ft | 502 kts | 107° |
| 2026-05-04 14:33 | 50.14052 | 8.26620 | 38967 ft | 502 kts | 107° |
| 2026-05-04 14:33 | 50.12414 | 8.37206 | 38980 ft | 501 kts | 107° |
| 2026-05-04 14:34 | 50.10767 | 8.47773 | 38963 ft | 501 kts | 107° |
| 2026-05-04 14:34 | 50.09114 | 8.58308 | 38966 ft | 500 kts | 107° |
| 2026-05-04 14:35 | 50.07453 | 8.68824 | 38963 ft | 500 kts | 107° |
| 2026-05-04 14:35 | 50.05773 | 8.79248 | 38963 ft | 499 kts | 110° |
| 2026-05-04 14:36 | 50.03614 | 8.89479 | 38970 ft | 497 kts | 112° |
| 2026-05-04 14:36 | 50.01299 | 8.99621 | 38973 ft | 497 kts | 113° |
| 2026-05-04 14:37 | 49.98970 | 9.09740 | 38981 ft | 497 kts | 113° |
| 2026-05-04 14:37 | 49.96649 | 9.19868 | 38977 ft | 497 kts | 113° |
| 2026-05-04 14:38 | 49.94328 | 9.29996 | 38980 ft | 497 kts | 113° |
| 2026-05-04 14:38 | 49.92002 | 9.40110 | 38977 ft | 497 kts | 113° |
| 2026-05-04 14:39 | 49.89681 | 9.50151 | 38977 ft | 497 kts | 113° |
| 2026-05-04 14:39 | 49.87335 | 9.60246 | 38974 ft | 498 kts | 113° |
| 2026-05-04 14:40 | 49.83791 | 9.75404 | 38972 ft | 499 kts | 113° |
| 2026-05-04 14:40 | 49.81414 | 9.85519 | 38971 ft | 499 kts | 113° |
| 2026-05-04 14:41 | 49.79027 | 9.95627 | 38969 ft | 499 kts | 113° |
| 2026-05-04 14:42 | 49.74244 | 10.15733 | 38966 ft | 500 kts | 113° |
| 2026-05-04 14:42 | 49.71826 | 10.25834 | 38964 ft | 499 kts | 113° |
| 2026-05-04 14:43 | 49.69407 | 10.35887 | 38963 ft | 499 kts | 114° |
| 2026-05-04 14:43 | 49.66977 | 10.45935 | 38962 ft | 499 kts | 113° |
| 2026-05-04 14:44 | 49.64541 | 10.55968 | 38968 ft | 499 kts | 114° |
| 2026-05-04 14:44 | 49.62110 | 10.65933 | 38966 ft | 499 kts | 114° |
| 2026-05-04 14:45 | 49.59656 | 10.75947 | 38964 ft | 499 kts | 114° |
| 2026-05-04 14:45 | 49.57195 | 10.85947 | 38964 ft | 499 kts | 114° |
| 2026-05-04 14:46 | 49.54722 | 10.95947 | 38969 ft | 499 kts | 114° |
| 2026-05-04 14:46 | 49.52114 | 11.05843 | 38973 ft | 497 kts | 118° |
| 2026-05-04 14:47 | 49.46532 | 11.23067 | 38963 ft | 496 kts | 120° |
| 2026-05-04 14:47 | 49.41664 | 11.37718 | 38962 ft | 497 kts | 120° |
| 2026-05-04 14:48 | 49.38523 | 11.47171 | 38962 ft | 497 kts | 120° |
| 2026-05-04 14:48 | 49.35907 | 11.55025 | 38956 ft | 496 kts | 120° |
| 2026-05-04 14:49 | 49.32756 | 11.64460 | 38949 ft | 496 kts | 120° |
| 2026-05-04 14:49 | 49.29596 | 11.73882 | 38952 ft | 497 kts | 120° |
| 2026-05-04 14:50 | 49.26419 | 11.83318 | 38943 ft | 498 kts | 120° |
| 2026-05-04 14:50 | 49.23242 | 11.92722 | 38941 ft | 497 kts | 120° |
| 2026-05-04 14:51 | 49.20073 | 12.02067 | 38960 ft | 497 kts | 120° |
| 2026-05-04 14:51 | 49.16878 | 12.11451 | 38953 ft | 498 kts | 120° |
| 2026-05-04 14:52 | 49.13674 | 12.20831 | 38935 ft | 498 kts | 120° |
| 2026-05-04 14:52 | 49.10464 | 12.30193 | 38935 ft | 498 kts | 120° |
| 2026-05-04 14:53 | 49.07243 | 12.39553 | 38930 ft | 498 kts | 120° |
| 2026-05-04 14:53 | 49.04016 | 12.48897 | 38933 ft | 497 kts | 120° |
| 2026-05-04 14:54 | 49.00783 | 12.58221 | 38931 ft | 497 kts | 120° |
| 2026-05-04 14:54 | 48.97543 | 12.67532 | 38933 ft | 497 kts | 120° |
| 2026-05-04 14:55 | 48.94298 | 12.76828 | 38931 ft | 498 kts | 120° |
| 2026-05-04 14:55 | 48.91058 | 12.86073 | 38931 ft | 498 kts | 120° |
| 2026-05-04 14:56 | 48.87795 | 12.95351 | 38925 ft | 498 kts | 120° |
| 2026-05-04 14:56 | 48.84521 | 13.04628 | 38925 ft | 497 kts | 120° |
| 2026-05-04 14:57 | 48.81261 | 13.13830 | 38922 ft | 497 kts | 121° |
| 2026-05-04 14:57 | 48.77980 | 13.23063 | 38921 ft | 497 kts | 121° |
| 2026-05-04 14:58 | 48.74687 | 13.32291 | 38915 ft | 497 kts | 121° |
| 2026-05-04 14:58 | 48.71388 | 13.41510 | 38926 ft | 496 kts | 121° |
| 2026-05-04 14:59 | 48.68089 | 13.50691 | 38921 ft | 496 kts | 121° |
| 2026-05-04 15:00 | 48.62822 | 13.64130 | 38925 ft | 494 kts | 127° |
| 2026-05-04 15:00 | 48.58811 | 13.72548 | 38925 ft | 493 kts | 129° |
| 2026-05-04 15:01 | 48.52774 | 13.85066 | 38926 ft | 493 kts | 128° |
| 2026-05-04 15:01 | 48.48777 | 13.93474 | 38922 ft | 493 kts | 128° |
| 2026-05-04 15:02 | 48.44779 | 14.01905 | 38916 ft | 494 kts | 128° |
| 2026-05-04 15:02 | 48.40781 | 14.10311 | 38923 ft | 494 kts | 128° |
| 2026-05-04 15:03 | 48.36774 | 14.18704 | 38918 ft | 493 kts | 128° |
| 2026-05-04 15:03 | 48.32782 | 14.27035 | 38901 ft | 493 kts | 128° |
| 2026-05-04 15:04 | 48.28764 | 14.35395 | 38915 ft | 494 kts | 128° |
| 2026-05-04 15:04 | 48.24729 | 14.43763 | 38916 ft | 494 kts | 128° |
| 2026-05-04 15:05 | 48.20689 | 14.52119 | 38901 ft | 494 kts | 128° |
| 2026-05-04 15:05 | 48.16638 | 14.60471 | 38918 ft | 494 kts | 128° |
| 2026-05-04 15:06 | 48.12613 | 14.68744 | 38923 ft | 494 kts | 128° |
| 2026-05-04 15:07 | 48.06537 | 14.81186 | 38930 ft | 494 kts | 128° |
| 2026-05-04 15:07 | 48.02527 | 14.89550 | 38927 ft | 494 kts | 126° |
| 2026-05-04 15:08 | 47.98677 | 14.98070 | 38938 ft | 495 kts | 126° |
| 2026-05-04 15:08 | 47.94828 | 15.06593 | 38937 ft | 495 kts | 126° |
| 2026-05-04 15:09 | 47.90949 | 15.15072 | 38945 ft | 495 kts | 126° |
| 2026-05-04 15:09 | 47.87069 | 15.23485 | 38964 ft | 495 kts | 126° |
| 2026-05-04 15:10 | 47.81207 | 15.36136 | 38968 ft | 495 kts | 126° |
| 2026-05-04 15:11 | 47.75313 | 15.48802 | 38975 ft | 498 kts | 126° |
| 2026-05-04 15:11 | 47.71363 | 15.57259 | 38986 ft | 497 kts | 126° |
| 2026-05-04 15:12 | 47.67413 | 15.65690 | 38986 ft | 497 kts | 126° |
| 2026-05-04 15:12 | 47.63454 | 15.74114 | 38986 ft | 498 kts | 126° |
| 2026-05-04 15:13 | 47.59501 | 15.82500 | 38986 ft | 498 kts | 126° |
| 2026-05-04 15:13 | 47.55515 | 15.90929 | 38986 ft | 499 kts | 126° |
| 2026-05-04 15:14 | 47.51534 | 15.99327 | 38980 ft | 498 kts | 126° |
| 2026-05-04 15:14 | 47.47540 | 16.07723 | 38990 ft | 499 kts | 126° |
| 2026-05-04 15:15 | 47.43537 | 16.16109 | 38984 ft | 499 kts | 126° |
| 2026-05-04 15:15 | 47.39530 | 16.24480 | 38988 ft | 500 kts | 126° |
| 2026-05-04 15:16 | 47.33498 | 16.37035 | 38991 ft | 499 kts | 126° |
| 2026-05-04 15:17 | 47.27454 | 16.49542 | 38994 ft | 500 kts | 127° |
| 2026-05-04 15:17 | 47.20940 | 16.61484 | 38994 ft | 498 kts | 130° |
| 2026-05-04 15:18 | 47.16526 | 16.69326 | 38999 ft | 497 kts | 130° |
| 2026-05-04 15:19 | 47.10002 | 16.81092 | 39007 ft | 498 kts | 129° |
| 2026-05-04 15:19 | 47.03458 | 16.92933 | 39008 ft | 498 kts | 129° |
| 2026-05-04 15:20 | 46.99086 | 17.00811 | 39012 ft | 497 kts | 130° |
| 2026-05-04 15:20 | 46.94715 | 17.08660 | 39016 ft | 498 kts | 129° |
| 2026-05-04 15:21 | 46.90324 | 17.16523 | 39020 ft | 498 kts | 129° |
| 2026-05-04 15:22 | 46.83739 | 17.28272 | 39026 ft | 498 kts | 129° |
| 2026-05-04 15:22 | 46.77140 | 17.39997 | 39025 ft | 497 kts | 129° |
| 2026-05-04 15:23 | 46.72755 | 17.47759 | 39024 ft | 496 kts | 129° |
| 2026-05-04 15:23 | 46.68396 | 17.55455 | 39033 ft | 495 kts | 129° |
| 2026-05-04 15:24 | 46.59607 | 17.70929 | 39039 ft | 495 kts | 128° |
| 2026-05-04 15:25 | 46.55367 | 17.78818 | 39043 ft | 495 kts | 127° |
| 2026-05-04 15:26 | 46.49083 | 17.90704 | 39043 ft | 495 kts | 127° |
| 2026-05-04 15:26 | 46.42766 | 18.02469 | 39041 ft | 494 kts | 127° |
| 2026-05-04 15:27 | 46.36393 | 18.14246 | 39047 ft | 495 kts | 127° |
| 2026-05-04 15:28 | 46.30014 | 18.25989 | 39056 ft | 495 kts | 127° |
| 2026-05-04 15:29 | 46.23620 | 18.37713 | 39060 ft | 495 kts | 128° |
| 2026-05-04 15:30 | 46.08657 | 18.64958 | 39059 ft | 496 kts | 128° |
| 2026-05-04 15:31 | 46.02196 | 18.76640 | 39052 ft | 496 kts | 128° |
| 2026-05-04 15:32 | 45.91853 | 18.96390 | 39062 ft | 495 kts | 119° |
| 2026-05-04 15:34 | 45.83473 | 19.18021 | 39064 ft | 496 kts | 118° |
| 2026-05-04 15:34 | 45.78481 | 19.30940 | 39064 ft | 495 kts | 117° |
| 2026-05-04 15:35 | 45.73446 | 19.43862 | 39070 ft | 495 kts | 118° |
| 2026-05-04 15:36 | 45.68964 | 19.55315 | 39072 ft | 495 kts | 118° |
| 2026-05-04 15:36 | 45.65590 | 19.63907 | 39075 ft | 496 kts | 118° |
| 2026-05-04 15:37 | 45.62197 | 19.72518 | 39078 ft | 496 kts | 118° |
| 2026-05-04 15:37 | 45.58808 | 19.81095 | 39078 ft | 496 kts | 118° |
| 2026-05-04 15:38 | 45.55415 | 19.89653 | 39079 ft | 495 kts | 118° |
| 2026-05-04 15:38 | 45.52040 | 19.98142 | 39081 ft | 494 kts | 118° |
| 2026-05-04 15:39 | 45.48640 | 20.06667 | 39083 ft | 494 kts | 118° |
| 2026-05-04 15:40 | 45.43524 | 20.19447 | 39090 ft | 494 kts | 118° |
| 2026-05-04 15:40 | 45.40610 | 20.28032 | 39087 ft | 491 kts | 112° |
| 2026-05-04 15:41 | 45.37886 | 20.36962 | 39088 ft | 491 kts | 111° |
| 2026-05-04 15:41 | 45.35215 | 20.45845 | 39086 ft | 491 kts | 111° |
| 2026-05-04 15:42 | 45.32517 | 20.54772 | 39101 ft | 491 kts | 111° |
| 2026-05-04 15:42 | 45.29798 | 20.63702 | 39091 ft | 492 kts | 111° |
| 2026-05-04 15:43 | 45.27072 | 20.72614 | 39087 ft | 492 kts | 112° |
| 2026-05-04 15:43 | 45.24336 | 20.81526 | 39087 ft | 493 kts | 112° |
| 2026-05-04 15:44 | 45.21607 | 20.90383 | 39078 ft | 494 kts | 111° |
| 2026-05-04 15:44 | 45.18845 | 20.99321 | 39076 ft | 495 kts | 112° |
| 2026-05-04 15:45 | 45.16075 | 21.08253 | 39085 ft | 495 kts | 112° |
| 2026-05-04 15:45 | 45.13296 | 21.17180 | 39067 ft | 495 kts | 112° |
| 2026-05-04 15:46 | 45.10511 | 21.26098 | 39076 ft | 494 kts | 112° |
| 2026-05-04 15:46 | 45.07730 | 21.34968 | 39075 ft | 493 kts | 112° |
| 2026-05-04 15:47 | 45.04943 | 21.43830 | 39077 ft | 493 kts | 112° |
| 2026-05-04 15:47 | 45.02152 | 21.52678 | 39079 ft | 493 kts | 112° |
| 2026-05-04 15:48 | 44.99372 | 21.61457 | 39086 ft | 491 kts | 112° |
| 2026-05-04 15:48 | 44.95178 | 21.74646 | 39083 ft | 490 kts | 112° |
| 2026-05-04 15:49 | 44.92370 | 21.83439 | 39086 ft | 490 kts | 112° |
| 2026-05-04 15:49 | 44.89558 | 21.92215 | 39084 ft | 491 kts | 113° |
| 2026-05-04 15:50 | 44.86734 | 22.01000 | 39076 ft | 492 kts | 112° |
| 2026-05-04 15:50 | 44.83901 | 22.09785 | 39077 ft | 492 kts | 112° |
| 2026-05-04 15:51 | 44.81060 | 22.18559 | 39082 ft | 492 kts | 113° |
| 2026-05-04 15:51 | 44.78240 | 22.27243 | 39059 ft | 490 kts | 113° |
| 2026-05-04 15:52 | 44.75397 | 22.35968 | 39060 ft | 490 kts | 113° |
| 2026-05-04 15:52 | 44.72548 | 22.44683 | 39048 ft | 490 kts | 113° |
| 2026-05-04 15:53 | 44.69692 | 22.53392 | 39041 ft | 489 kts | 113° |
| 2026-05-04 15:53 | 44.66845 | 22.62041 | 39041 ft | 490 kts | 113° |
| 2026-05-04 15:54 | 44.63971 | 22.70746 | 39032 ft | 491 kts | 113° |
| 2026-05-04 15:54 | 44.61092 | 22.79439 | 39028 ft | 491 kts | 113° |
| 2026-05-04 15:55 | 44.58203 | 22.88131 | 39030 ft | 491 kts | 113° |
| 2026-05-04 15:55 | 44.55328 | 22.96754 | 39027 ft | 491 kts | 113° |
| 2026-05-04 15:56 | 44.52422 | 23.05445 | 39025 ft | 491 kts | 113° |
| 2026-05-04 15:56 | 44.49511 | 23.14117 | 39046 ft | 491 kts | 113° |
| 2026-05-04 15:57 | 44.46597 | 23.22773 | 39031 ft | 490 kts | 113° |
| 2026-05-04 15:57 | 44.43700 | 23.31348 | 39033 ft | 490 kts | 114° |
| 2026-05-04 15:58 | 44.40776 | 23.39978 | 39036 ft | 490 kts | 114° |
| 2026-05-04 15:58 | 44.37848 | 23.48592 | 39031 ft | 490 kts | 114° |
| 2026-05-04 15:59 | 44.34920 | 23.57178 | 39032 ft | 489 kts | 114° |
| 2026-05-04 15:59 | 44.32002 | 23.65704 | 39029 ft | 489 kts | 114° |
| 2026-05-04 16:00 | 44.29063 | 23.74269 | 39042 ft | 489 kts | 114° |
| 2026-05-04 16:00 | 44.26279 | 23.82907 | 39050 ft | 487 kts | 110° |
| 2026-05-04 16:01 | 44.23778 | 23.91709 | 39043 ft | 487 kts | 110° |
| 2026-05-04 16:01 | 44.21278 | 24.00483 | 39042 ft | 487 kts | 110° |
| 2026-05-04 16:02 | 44.18720 | 24.09227 | 39053 ft | 487 kts | 110° |
| 2026-05-04 16:03 | 44.14821 | 24.22349 | 39053 ft | 489 kts | 111° |
| 2026-05-04 16:03 | 44.12209 | 24.31097 | 39054 ft | 489 kts | 111° |
| 2026-05-04 16:04 | 44.09642 | 24.39675 | 39053 ft | 489 kts | 111° |
| 2026-05-04 16:04 | 44.05721 | 24.52723 | 39056 ft | 490 kts | 111° |
| 2026-05-04 16:05 | 44.03086 | 24.61453 | 39053 ft | 490 kts | 111° |
| 2026-05-04 16:06 | 43.99198 | 24.74282 | 39069 ft | 490 kts | 111° |
| 2026-05-04 16:07 | 43.93909 | 24.91635 | 39059 ft | 489 kts | 111° |
| 2026-05-04 16:08 | 43.88577 | 25.09010 | 39060 ft | 489 kts | 111° |
| 2026-05-04 16:09 | 43.81889 | 25.30639 | 39054 ft | 488 kts | 112° |
| 2026-05-04 16:10 | 43.76519 | 25.47875 | 39051 ft | 486 kts | 112° |
| 2026-05-04 16:11 | 43.72489 | 25.60735 | 39226 ft | 486 kts | 112° |
| 2026-05-04 16:11 | 43.71158 | 25.64968 | 39369 ft | 486 kts | 112° |
| 2026-05-04 16:12 | 43.67091 | 25.77865 | 39783 ft | 486 kts | 112° |
| 2026-05-04 16:12 | 43.63034 | 25.90665 | 40116 ft | 487 kts | 112° |
| 2026-05-04 16:13 | 43.59636 | 26.01340 | 40375 ft | 488 kts | 112° |
| 2026-05-04 16:13 | 43.50453 | 26.29968 | 40968 ft | 489 kts | 112° |
| 2026-05-04 16:14 | 43.33521 | 26.81960 | 41038 ft | 490 kts | 113° |
| 2026-05-04 16:16 | 43.19445 | 27.24429 | 41036 ft | 488 kts | 113° |
| 2026-05-04 16:17 | 43.05236 | 27.66631 | 41044 ft | 488 kts | 113° |
| 2026-05-04 16:18 | 42.93791 | 28.00155 | 41045 ft | 488 kts | 113° |
| 2026-05-04 16:19 | 42.79284 | 28.42069 | 41039 ft | 488 kts | 114° |
| 2026-05-04 16:20 | 42.64637 | 28.83751 | 41020 ft | 490 kts | 114° |
| 2026-05-04 16:22 | 42.52036 | 29.19114 | 41016 ft | 490 kts | 114° |
| 2026-05-04 16:23 | 42.43090 | 29.43953 | 41003 ft | 491 kts | 114° |
| 2026-05-04 16:25 | 42.34975 | 29.67661 | 40997 ft | 489 kts | 108° |
| 2026-05-04 16:26 | 42.27317 | 29.98137 | 40972 ft | 490 kts | 107° |
| 2026-05-04 16:28 | 42.21722 | 30.19856 | 40967 ft | 490 kts | 107° |
| 2026-05-04 16:29 | 42.09647 | 30.66135 | 40933 ft | 491 kts | 107° |
| 2026-05-04 16:31 | 41.98148 | 31.09441 | 40914 ft | 491 kts | 108° |
| 2026-05-04 16:32 | 41.84191 | 31.61065 | 40903 ft | 490 kts | 109° |